sensor_id;sensor_type;location;lat;lon;timestamp;P1;durP1;ratioP1;P2;durP2;ratioP2
24751;SDS011;27246;52.376;4.628;2023-03-19T00:00:30;10.80;;;9.63;;
24751;SDS011;27246;52.376;4.628;2023-03-19T00:05:31;10.98;;;9.95;;
24751;SDS011;27246;52.376;4.628;2023-03-19T00:10:36;11.05;;;10.02;;
24751;SDS011;27246;52.376;4.628;2023-03-19T00:15:39;11.55;;;10.45;;
24751;SDS011;27246;52.376;4.628;2023-03-19T00:20:42;12.63;;;11.32;;
24751;SDS011;27246;52.376;4.628;2023-03-19T00:25:43;13.05;;;11.85;;
24751;SDS011;27246;52.376;4.628;2023-03-19T00:30:45;13.32;;;12.02;;
24751;SDS011;27246;52.376;4.628;2023-03-19T00:35:47;15.00;;;13.45;;
24751;SDS011;27246;52.376;4.628;2023-03-19T00:40:49;14.50;;;13.10;;
24751;SDS011;27246;52.376;4.628;2023-03-19T00:45:50;16.02;;;14.52;;
24751;SDS011;27246;52.376;4.628;2023-03-19T00:50:52;15.88;;;14.35;;
24751;SDS011;27246;52.376;4.628;2023-03-19T00:55:54;17.63;;;16.02;;
24751;SDS011;27246;52.376;4.628;2023-03-19T01:00:56;18.20;;;16.40;;
24751;SDS011;27246;52.376;4.628;2023-03-19T01:05:58;17.33;;;15.57;;
24751;SDS011;27246;52.376;4.628;2023-03-19T01:11:03;19.92;;;15.88;;
24751;SDS011;27246;52.376;4.628;2023-03-19T01:16:07;16.15;;;14.55;;
24751;SDS011;27246;52.376;4.628;2023-03-19T01:21:09;15.80;;;14.20;;
24751;SDS011;27246;52.376;4.628;2023-03-19T01:26:17;14.90;;;12.18;;
24751;SDS011;27246;52.376;4.628;2023-03-19T01:31:22;13.55;;;11.88;;
24751;SDS011;27246;52.376;4.628;2023-03-19T01:36:56;17.75;;;13.15;;
24751;SDS011;27246;52.376;4.628;2023-03-19T01:42:04;15.77;;;13.00;;
24751;SDS011;27246;52.376;4.628;2023-03-19T01:47:16;14.07;;;12.20;;
24751;SDS011;27246;52.376;4.628;2023-03-19T01:52:51;14.15;;;11.40;;
24751;SDS011;27246;52.376;4.628;2023-03-19T01:58:01;14.35;;;11.40;;
24751;SDS011;27246;52.376;4.628;2023-03-19T02:03:24;13.30;;;10.45;;
24751;SDS011;27246;52.376;4.628;2023-03-19T02:08:35;12.80;;;8.98;;
24751;SDS011;27246;52.376;4.628;2023-03-19T02:13:38;10.60;;;8.95;;
24751;SDS011;27246;52.376;4.628;2023-03-19T02:18:39;13.25;;;9.43;;
24751;SDS011;27246;52.376;4.628;2023-03-19T02:29:18;11.32;;;8.20;;
24751;SDS011;27246;52.376;4.628;2023-03-19T02:39:28;11.30;;;8.52;;
24751;SDS011;27246;52.376;4.628;2023-03-19T02:44:33;10.48;;;8.38;;
24751;SDS011;27246;52.376;4.628;2023-03-19T02:49:35;13.13;;;8.88;;
24751;SDS011;27246;52.376;4.628;2023-03-19T02:54:36;12.35;;;9.05;;
24751;SDS011;27246;52.376;4.628;2023-03-19T02:59:38;13.50;;;9.55;;
24751;SDS011;27246;52.376;4.628;2023-03-19T03:04:40;14.48;;;10.30;;
24751;SDS011;27246;52.376;4.628;2023-03-19T03:09:42;12.68;;;10.23;;
24751;SDS011;27246;52.376;4.628;2023-03-19T03:14:43;18.88;;;12.25;;
24751;SDS011;27246;52.376;4.628;2023-03-19T03:19:46;16.17;;;11.30;;
24751;SDS011;27246;52.376;4.628;2023-03-19T03:24:48;19.98;;;13.15;;
24751;SDS011;27246;52.376;4.628;2023-03-19T03:29:50;16.50;;;12.88;;
24751;SDS011;27246;52.376;4.628;2023-03-19T03:34:52;17.92;;;14.68;;
24751;SDS011;27246;52.376;4.628;2023-03-19T03:39:53;20.27;;;15.00;;
24751;SDS011;27246;52.376;4.628;2023-03-19T03:44:55;19.30;;;14.85;;
24751;SDS011;27246;52.376;4.628;2023-03-19T03:49:57;22.55;;;17.52;;
24751;SDS011;27246;52.376;4.628;2023-03-19T03:55:00;23.23;;;18.42;;
24751;SDS011;27246;52.376;4.628;2023-03-19T04:00:02;23.00;;;18.95;;
24751;SDS011;27246;52.376;4.628;2023-03-19T04:05:13;26.05;;;21.13;;
24751;SDS011;27246;52.376;4.628;2023-03-19T04:10:15;25.45;;;21.92;;
24751;SDS011;27246;52.376;4.628;2023-03-19T04:15:17;28.48;;;22.15;;
24751;SDS011;27246;52.376;4.628;2023-03-19T04:20:20;27.52;;;23.15;;
24751;SDS011;27246;52.376;4.628;2023-03-19T04:25:24;31.60;;;23.48;;
24751;SDS011;27246;52.376;4.628;2023-03-19T04:30:26;31.50;;;23.15;;
24751;SDS011;27246;52.376;4.628;2023-03-19T04:35:29;29.05;;;22.63;;
24751;SDS011;27246;52.376;4.628;2023-03-19T04:40:32;28.23;;;21.77;;
24751;SDS011;27246;52.376;4.628;2023-03-19T04:45:34;29.45;;;22.73;;
24751;SDS011;27246;52.376;4.628;2023-03-19T04:50:37;28.35;;;21.20;;
24751;SDS011;27246;52.376;4.628;2023-03-19T04:55:39;29.92;;;21.75;;
24751;SDS011;27246;52.376;4.628;2023-03-19T05:00:48;32.00;;;22.42;;
24751;SDS011;27246;52.376;4.628;2023-03-19T05:05:55;31.42;;;22.95;;
24751;SDS011;27246;52.376;4.628;2023-03-19T05:10:57;36.72;;;24.00;;
24751;SDS011;27246;52.376;4.628;2023-03-19T05:16:04;34.40;;;22.02;;
24751;SDS011;27246;52.376;4.628;2023-03-19T05:21:10;29.63;;;22.80;;
24751;SDS011;27246;52.376;4.628;2023-03-19T05:26:14;31.35;;;22.20;;
24751;SDS011;27246;52.376;4.628;2023-03-19T05:31:35;25.65;;;18.23;;
24751;SDS011;27246;52.376;4.628;2023-03-19T05:36:38;19.55;;;14.90;;
24751;SDS011;27246;52.376;4.628;2023-03-19T05:46:53;13.43;;;11.18;;
24751;SDS011;27246;52.376;4.628;2023-03-19T05:51:58;16.83;;;9.07;;
24751;SDS011;27246;52.376;4.628;2023-03-19T05:57:00;16.25;;;9.85;;
24751;SDS011;27246;52.376;4.628;2023-03-19T06:02:12;17.65;;;10.82;;
24751;SDS011;27246;52.376;4.628;2023-03-19T06:07:14;14.98;;;10.80;;
24751;SDS011;27246;52.376;4.628;2023-03-19T06:12:16;16.73;;;11.88;;
24751;SDS011;27246;52.376;4.628;2023-03-19T06:17:47;19.25;;;13.45;;
24751;SDS011;27246;52.376;4.628;2023-03-19T06:22:51;18.27;;;13.98;;
24751;SDS011;27246;52.376;4.628;2023-03-19T06:27:55;22.05;;;14.50;;
24751;SDS011;27246;52.376;4.628;2023-03-19T06:33:01;22.90;;;14.90;;
24751;SDS011;27246;52.376;4.628;2023-03-19T06:38:05;26.17;;;16.40;;
24751;SDS011;27246;52.376;4.628;2023-03-19T06:43:07;22.77;;;14.73;;
24751;SDS011;27246;52.376;4.628;2023-03-19T06:48:09;25.45;;;16.05;;
24751;SDS011;27246;52.376;4.628;2023-03-19T06:53:11;25.00;;;16.73;;
24751;SDS011;27246;52.376;4.628;2023-03-19T06:58:14;25.65;;;15.82;;
24751;SDS011;27246;52.376;4.628;2023-03-19T07:03:16;25.55;;;16.90;;
24751;SDS011;27246;52.376;4.628;2023-03-19T07:08:17;29.15;;;18.08;;
24751;SDS011;27246;52.376;4.628;2023-03-19T07:13:19;27.80;;;17.75;;
24751;SDS011;27246;52.376;4.628;2023-03-19T07:18:21;27.50;;;17.58;;
24751;SDS011;27246;52.376;4.628;2023-03-19T07:23:23;25.05;;;16.67;;
24751;SDS011;27246;52.376;4.628;2023-03-19T07:28:24;29.67;;;17.02;;
24751;SDS011;27246;52.376;4.628;2023-03-19T07:33:26;24.77;;;17.00;;
24751;SDS011;27246;52.376;4.628;2023-03-19T07:38:28;27.25;;;17.58;;
24751;SDS011;27246;52.376;4.628;2023-03-19T07:43:29;33.67;;;20.48;;
24751;SDS011;27246;52.376;4.628;2023-03-19T07:48:31;32.15;;;20.10;;
24751;SDS011;27246;52.376;4.628;2023-03-19T07:53:33;32.40;;;20.15;;
24751;SDS011;27246;52.376;4.628;2023-03-19T07:58:35;37.47;;;21.88;;
24751;SDS011;27246;52.376;4.628;2023-03-19T08:03:36;35.13;;;22.27;;
24751;SDS011;27246;52.376;4.628;2023-03-19T08:08:38;41.15;;;23.33;;
24751;SDS011;27246;52.376;4.628;2023-03-19T08:13:40;37.65;;;22.98;;
24751;SDS011;27246;52.376;4.628;2023-03-19T08:18:42;45.65;;;25.50;;
24751;SDS011;27246;52.376;4.628;2023-03-19T08:23:44;40.38;;;24.92;;
24751;SDS011;27246;52.376;4.628;2023-03-19T08:28:46;42.15;;;24.50;;
24751;SDS011;27246;52.376;4.628;2023-03-19T08:33:48;47.08;;;25.00;;
24751;SDS011;27246;52.376;4.628;2023-03-19T08:38:49;47.17;;;25.30;;
24751;SDS011;27246;52.376;4.628;2023-03-19T08:43:55;42.33;;;25.65;;
24751;SDS011;27246;52.376;4.628;2023-03-19T08:48:56;44.53;;;25.10;;
24751;SDS011;27246;52.376;4.628;2023-03-19T08:53:58;45.33;;;24.92;;
24751;SDS011;27246;52.376;4.628;2023-03-19T08:59:00;40.80;;;23.75;;
24751;SDS011;27246;52.376;4.628;2023-03-19T09:04:02;41.28;;;22.50;;
24751;SDS011;27246;52.376;4.628;2023-03-19T09:09:03;35.67;;;20.50;;
24751;SDS011;27246;52.376;4.628;2023-03-19T09:14:07;32.67;;;18.63;;
24751;SDS011;27246;52.376;4.628;2023-03-19T09:19:09;32.22;;;18.05;;
24751;SDS011;27246;52.376;4.628;2023-03-19T09:24:11;37.80;;;19.70;;
24751;SDS011;27246;52.376;4.628;2023-03-19T09:29:13;30.73;;;17.40;;
24751;SDS011;27246;52.376;4.628;2023-03-19T09:34:14;34.10;;;18.50;;
24751;SDS011;27246;52.376;4.628;2023-03-19T09:39:16;35.00;;;18.58;;
24751;SDS011;27246;52.376;4.628;2023-03-19T09:44:25;32.50;;;18.15;;
24751;SDS011;27246;52.376;4.628;2023-03-19T09:49:36;33.50;;;18.92;;
24751;SDS011;27246;52.376;4.628;2023-03-19T09:54:43;36.78;;;19.27;;
24751;SDS011;27246;52.376;4.628;2023-03-19T09:59:48;31.42;;;18.05;;
24751;SDS011;27246;52.376;4.628;2023-03-19T10:05:00;33.35;;;18.95;;
24751;SDS011;27246;52.376;4.628;2023-03-19T10:15:48;34.97;;;19.42;;
24751;SDS011;27246;52.376;4.628;2023-03-19T10:20:56;31.15;;;18.00;;
24751;SDS011;27246;52.376;4.628;2023-03-19T10:26:03;29.40;;;15.45;;
24751;SDS011;27246;52.376;4.628;2023-03-19T10:36:18;30.70;;;17.85;;
24751;SDS011;27246;52.376;4.628;2023-03-19T10:46:45;28.40;;;17.40;;
24751;SDS011;27246;52.376;4.628;2023-03-19T10:51:47;27.20;;;16.27;;
24751;SDS011;27246;52.376;4.628;2023-03-19T10:56:50;34.03;;;17.52;;
24751;SDS011;27246;52.376;4.628;2023-03-19T11:01:56;31.15;;;16.45;;
24751;SDS011;27246;52.376;4.628;2023-03-19T11:07:04;33.85;;;17.73;;
24751;SDS011;27246;52.376;4.628;2023-03-19T11:18:06;33.88;;;16.50;;
24751;SDS011;27246;52.376;4.628;2023-03-19T11:23:03;28.77;;;14.97;;
24751;SDS011;27246;52.376;4.628;2023-03-19T11:28:13;25.63;;;13.75;;
24751;SDS011;27246;52.376;4.628;2023-03-19T11:33:24;27.23;;;13.48;;
24751;SDS011;27246;52.376;4.628;2023-03-19T12:05:54;38.30;;;14.75;;
24751;SDS011;27246;52.376;4.628;2023-03-19T12:38:15;29.20;;;13.00;;
24751;SDS011;27246;52.376;4.628;2023-03-19T12:43:26;28.92;;;13.77;;
24751;SDS011;27246;52.376;4.628;2023-03-19T12:54:17;28.08;;;13.50;;
24751;SDS011;27246;52.376;4.628;2023-03-19T13:04:30;24.33;;;12.63;;
24751;SDS011;27246;52.376;4.628;2023-03-19T13:09:49;23.95;;;12.25;;
24751;SDS011;27246;52.376;4.628;2023-03-19T13:20:13;21.45;;;11.88;;
24751;SDS011;27246;52.376;4.628;2023-03-19T13:25:22;19.50;;;11.82;;
24751;SDS011;27246;52.376;4.628;2023-03-19T13:30:27;17.17;;;9.65;;
24751;SDS011;27246;52.376;4.628;2023-03-19T13:45:42;14.53;;;8.87;;
24751;SDS011;27246;52.376;4.628;2023-03-19T13:50:49;13.32;;;8.68;;
24751;SDS011;27246;52.376;4.628;2023-03-19T14:11:35;14.77;;;10.95;;
24751;SDS011;27246;52.376;4.628;2023-03-19T14:16:41;17.50;;;10.35;;
24751;SDS011;27246;52.376;4.628;2023-03-19T14:27:01;19.67;;;10.65;;
24751;SDS011;27246;52.376;4.628;2023-03-19T14:32:17;20.00;;;12.23;;
24751;SDS011;27246;52.376;4.628;2023-03-19T14:37:23;24.42;;;13.35;;
24751;SDS011;27246;52.376;4.628;2023-03-19T14:53:33;27.75;;;13.80;;
24751;SDS011;27246;52.376;4.628;2023-03-19T14:58:48;30.95;;;16.85;;
24751;SDS011;27246;52.376;4.628;2023-03-19T15:03:55;27.50;;;15.38;;
24751;SDS011;27246;52.376;4.628;2023-03-19T15:09:00;27.90;;;15.73;;
24751;SDS011;27246;52.376;4.628;2023-03-19T15:19:33;30.92;;;14.70;;
24751;SDS011;27246;52.376;4.628;2023-03-19T15:24:36;24.35;;;14.95;;
24751;SDS011;27246;52.376;4.628;2023-03-19T15:29:38;25.55;;;14.68;;
24751;SDS011;27246;52.376;4.628;2023-03-19T15:34:40;22.30;;;13.93;;
24751;SDS011;27246;52.376;4.628;2023-03-19T15:39:44;25.85;;;14.18;;
24751;SDS011;27246;52.376;4.628;2023-03-19T15:44:53;28.23;;;14.20;;
24751;SDS011;27246;52.376;4.628;2023-03-19T15:50:03;24.98;;;14.77;;
24751;SDS011;27246;52.376;4.628;2023-03-19T15:55:12;27.95;;;14.30;;
24751;SDS011;27246;52.376;4.628;2023-03-19T16:00:15;28.35;;;17.02;;
24751;SDS011;27246;52.376;4.628;2023-03-19T16:05:26;23.58;;;12.68;;
24751;SDS011;27246;52.376;4.628;2023-03-19T16:10:34;25.15;;;15.98;;
24751;SDS011;27246;52.376;4.628;2023-03-19T16:15:42;23.67;;;12.50;;
24751;SDS011;27246;52.376;4.628;2023-03-19T16:26:45;24.48;;;13.43;;
24751;SDS011;27246;52.376;4.628;2023-03-19T16:31:42;22.43;;;11.60;;
24751;SDS011;27246;52.376;4.628;2023-03-19T16:36:47;18.25;;;9.63;;
24751;SDS011;27246;52.376;4.628;2023-03-19T16:42:12;20.75;;;9.95;;
24751;SDS011;27246;52.376;4.628;2023-03-19T16:47:28;15.93;;;8.18;;
24751;SDS011;27246;52.376;4.628;2023-03-19T16:52:30;19.45;;;9.02;;
24751;SDS011;27246;52.376;4.628;2023-03-19T16:57:32;12.65;;;7.00;;
24751;SDS011;27246;52.376;4.628;2023-03-19T17:02:33;13.82;;;7.90;;
24751;SDS011;27246;52.376;4.628;2023-03-19T17:07:35;6.35;;;4.43;;
24751;SDS011;27246;52.376;4.628;2023-03-19T17:12:37;4.38;;;2.50;;
24751;SDS011;27246;52.376;4.628;2023-03-19T17:17:38;4.82;;;4.00;;
24751;SDS011;27246;52.376;4.628;2023-03-19T17:22:40;3.67;;;3.10;;
24751;SDS011;27246;52.376;4.628;2023-03-19T17:27:43;3.40;;;3.10;;
24751;SDS011;27246;52.376;4.628;2023-03-19T17:32:46;3.75;;;3.03;;
24751;SDS011;27246;52.376;4.628;2023-03-19T17:37:50;4.57;;;4.18;;
24751;SDS011;27246;52.376;4.628;2023-03-19T17:42:53;5.57;;;4.95;;
24751;SDS011;27246;52.376;4.628;2023-03-19T17:47:56;4.70;;;4.25;;
24751;SDS011;27246;52.376;4.628;2023-03-19T17:52:58;5.40;;;4.85;;
24751;SDS011;27246;52.376;4.628;2023-03-19T17:58:00;5.40;;;4.38;;
24751;SDS011;27246;52.376;4.628;2023-03-19T18:03:02;5.97;;;5.32;;
24751;SDS011;27246;52.376;4.628;2023-03-19T18:08:04;10.20;;;5.38;;
24751;SDS011;27246;52.376;4.628;2023-03-19T18:13:07;19.85;;;8.32;;
24751;SDS011;27246;52.376;4.628;2023-03-19T18:18:14;17.33;;;8.63;;
24751;SDS011;27246;52.376;4.628;2023-03-19T18:23:19;12.88;;;7.07;;
24751;SDS011;27246;52.376;4.628;2023-03-19T18:28:22;15.60;;;8.02;;
24751;SDS011;27246;52.376;4.628;2023-03-19T18:33:24;15.68;;;7.47;;
24751;SDS011;27246;52.376;4.628;2023-03-19T18:38:29;11.50;;;6.38;;
24751;SDS011;27246;52.376;4.628;2023-03-19T18:43:31;15.57;;;8.60;;
24751;SDS011;27246;52.376;4.628;2023-03-19T18:48:32;10.63;;;4.55;;
24751;SDS011;27246;52.376;4.628;2023-03-19T18:53:34;15.13;;;5.38;;
24751;SDS011;27246;52.376;4.628;2023-03-19T18:58:36;13.43;;;6.15;;
24751;SDS011;27246;52.376;4.628;2023-03-19T19:03:39;12.68;;;5.07;;
24751;SDS011;27246;52.376;4.628;2023-03-19T19:08:41;15.30;;;4.35;;
24751;SDS011;27246;52.376;4.628;2023-03-19T19:13:44;13.40;;;5.90;;
24751;SDS011;27246;52.376;4.628;2023-03-19T19:18:56;14.70;;;5.45;;
24751;SDS011;27246;52.376;4.628;2023-03-19T19:23:58;12.02;;;4.95;;
24751;SDS011;27246;52.376;4.628;2023-03-19T19:29:00;13.88;;;5.43;;
24751;SDS011;27246;52.376;4.628;2023-03-19T19:34:01;12.13;;;4.47;;
24751;SDS011;27246;52.376;4.628;2023-03-19T19:39:03;11.63;;;4.40;;
24751;SDS011;27246;52.376;4.628;2023-03-19T19:44:05;12.52;;;4.78;;
24751;SDS011;27246;52.376;4.628;2023-03-19T19:49:10;14.80;;;4.40;;
24751;SDS011;27246;52.376;4.628;2023-03-19T19:54:14;13.95;;;5.18;;
24751;SDS011;27246;52.376;4.628;2023-03-19T19:59:16;13.23;;;6.18;;
24751;SDS011;27246;52.376;4.628;2023-03-19T20:04:18;10.15;;;5.57;;
24751;SDS011;27246;52.376;4.628;2023-03-19T20:09:21;13.02;;;6.20;;
24751;SDS011;27246;52.376;4.628;2023-03-19T20:14:23;10.05;;;4.28;;
24751;SDS011;27246;52.376;4.628;2023-03-19T20:19:24;11.70;;;3.65;;
24751;SDS011;27246;52.376;4.628;2023-03-19T20:24:26;11.10;;;4.38;;
24751;SDS011;27246;52.376;4.628;2023-03-19T20:29:29;8.07;;;3.17;;
24751;SDS011;27246;52.376;4.628;2023-03-19T20:34:35;10.40;;;4.20;;
24751;SDS011;27246;52.376;4.628;2023-03-19T20:39:40;10.38;;;3.40;;
24751;SDS011;27246;52.376;4.628;2023-03-19T20:44:42;10.70;;;3.72;;
24751;SDS011;27246;52.376;4.628;2023-03-19T20:49:44;8.05;;;3.60;;
24751;SDS011;27246;52.376;4.628;2023-03-19T20:54:46;8.38;;;3.10;;
24751;SDS011;27246;52.376;4.628;2023-03-19T20:59:48;7.07;;;3.03;;
24751;SDS011;27246;52.376;4.628;2023-03-19T21:04:50;9.27;;;3.30;;
24751;SDS011;27246;52.376;4.628;2023-03-19T21:09:52;6.68;;;2.42;;
24751;SDS011;27246;52.376;4.628;2023-03-19T21:14:54;10.45;;;2.40;;
24751;SDS011;27246;52.376;4.628;2023-03-19T21:19:55;10.40;;;2.67;;
24751;SDS011;27246;52.376;4.628;2023-03-19T21:25:02;5.55;;;1.95;;
24751;SDS011;27246;52.376;4.628;2023-03-19T21:30:06;9.30;;;2.67;;
24751;SDS011;27246;52.376;4.628;2023-03-19T21:35:19;7.18;;;2.22;;
24751;SDS011;27246;52.376;4.628;2023-03-19T21:40:27;11.27;;;2.65;;
24751;SDS011;27246;52.376;4.628;2023-03-19T21:45:31;5.03;;;1.98;;
24751;SDS011;27246;52.376;4.628;2023-03-19T21:50:37;7.85;;;2.63;;
24751;SDS011;27246;52.376;4.628;2023-03-19T21:55:40;8.60;;;2.72;;
24751;SDS011;27246;52.376;4.628;2023-03-19T22:00:42;9.55;;;3.05;;
24751;SDS011;27246;52.376;4.628;2023-03-19T22:05:44;9.90;;;3.15;;
24751;SDS011;27246;52.376;4.628;2023-03-19T22:10:47;9.95;;;3.47;;
24751;SDS011;27246;52.376;4.628;2023-03-19T22:15:55;13.30;;;4.45;;
24751;SDS011;27246;52.376;4.628;2023-03-19T22:20:58;6.72;;;3.63;;
24751;SDS011;27246;52.376;4.628;2023-03-19T22:26:00;7.85;;;3.20;;
24751;SDS011;27246;52.376;4.628;2023-03-19T22:31:02;8.63;;;3.00;;
24751;SDS011;27246;52.376;4.628;2023-03-19T22:36:04;6.45;;;2.90;;
24751;SDS011;27246;52.376;4.628;2023-03-19T22:41:16;6.70;;;2.78;;
24751;SDS011;27246;52.376;4.628;2023-03-19T22:46:26;6.28;;;3.20;;
24751;SDS011;27246;52.376;4.628;2023-03-19T22:51:28;11.30;;;3.75;;
24751;SDS011;27246;52.376;4.628;2023-03-19T22:56:32;6.97;;;2.97;;
24751;SDS011;27246;52.376;4.628;2023-03-19T23:01:35;5.93;;;3.20;;
24751;SDS011;27246;52.376;4.628;2023-03-19T23:06:40;5.60;;;2.50;;
24751;SDS011;27246;52.376;4.628;2023-03-19T23:11:42;5.95;;;2.65;;
24751;SDS011;27246;52.376;4.628;2023-03-19T23:16:44;4.82;;;2.25;;
24751;SDS011;27246;52.376;4.628;2023-03-19T23:21:48;8.68;;;2.42;;
24751;SDS011;27246;52.376;4.628;2023-03-19T23:26:51;5.90;;;2.60;;
24751;SDS011;27246;52.376;4.628;2023-03-19T23:32:00;8.83;;;3.00;;
24751;SDS011;27246;52.376;4.628;2023-03-19T23:37:02;9.00;;;3.10;;
24751;SDS011;27246;52.376;4.628;2023-03-19T23:42:03;6.20;;;2.40;;
24751;SDS011;27246;52.376;4.628;2023-03-19T23:47:07;5.93;;;2.40;;
24751;SDS011;27246;52.376;4.628;2023-03-19T23:52:10;7.95;;;2.33;;
24751;SDS011;27246;52.376;4.628;2023-03-19T23:57:14;5.35;;;2.90;;
